createdAt,value
2018-07-14T00:02:28.973Z,88.10
2018-07-14T00:05:03.266Z,88.20
2018-07-14T00:07:37.541Z,88.60
2018-07-14T00:10:12.114Z,89.60
2018-07-14T00:12:46.290Z,88.50
2018-07-14T00:15:20.571Z,89.00
2018-07-14T00:17:54.765Z,89.10
2018-07-14T00:20:29.190Z,89.10
2018-07-14T00:23:03.547Z,89.40
2018-07-14T00:25:43.274Z,89.10
2018-07-14T00:28:17.441Z,88.90
2018-07-14T00:30:51.727Z,89.60
2018-07-14T00:36:00.343Z,90.40
2018-07-14T00:38:34.638Z,89.60
2018-07-14T00:41:08.943Z,90.00
2018-07-14T00:43:43.215Z,90.10
2018-07-14T00:46:17.535Z,90.10
2018-07-14T00:48:51.865Z,90.00
2018-07-14T00:54:00.142Z,89.90
2018-07-14T00:56:34.346Z,90.00
2018-07-14T00:59:08.731Z,90.00
2018-07-14T01:01:43.150Z,90.00
2018-07-14T01:04:17.439Z,90.30
2018-07-14T01:06:51.802Z,90.60
2018-07-14T01:09:25.993Z,90.70
2018-07-14T01:14:34.473Z,90.40
2018-07-14T01:17:08.886Z,90.30
2018-07-14T01:19:43.254Z,90.00
2018-07-14T01:22:17.552Z,90.60
2018-07-14T01:24:51.862Z,90.30
2018-07-14T01:27:26.096Z,90.50
2018-07-14T01:30:00.411Z,90.60
2018-07-14T01:32:34.813Z,91.10
2018-07-14T01:35:09.355Z,91.00
2018-07-14T01:37:43.638Z,91.10
2018-07-14T01:40:18.150Z,91.10
2018-07-14T01:42:52.498Z,91.50
2018-07-14T01:45:26.837Z,91.70
2018-07-14T01:48:01.038Z,91.10
2018-07-14T01:50:35.357Z,91.50
2018-07-14T01:53:09.685Z,90.90
2018-07-14T01:55:44.122Z,90.90
2018-07-14T01:58:18.698Z,90.80
2018-07-14T02:00:52.973Z,91.20
2018-07-14T02:03:27.224Z,91.10
2018-07-14T02:06:01.443Z,91.10
2018-07-14T02:08:35.743Z,91.10
2018-07-14T02:11:10.042Z,91.70
2018-07-14T02:13:44.246Z,91.40
2018-07-14T02:16:18.674Z,91.70
2018-07-14T02:18:52.979Z,92.00
2018-07-14T02:21:27.259Z,91.90
2018-07-14T02:24:01.585Z,91.70
2018-07-14T02:26:35.730Z,91.40
2018-07-14T02:29:10.038Z,91.40
2018-07-14T02:31:44.230Z,91.30
2018-07-14T02:34:18.747Z,91.10
2018-07-14T02:36:53.047Z,91.00
2018-07-14T02:39:27.310Z,91.60
2018-07-14T02:42:01.619Z,91.40
2018-07-14T02:47:10.226Z,91.30
2018-07-14T02:49:44.685Z,91.50
2018-07-14T02:52:19.003Z,91.10
2018-07-14T02:54:53.389Z,91.20
2018-07-14T02:57:27.630Z,91.30
2018-07-14T03:00:01.895Z,91.60
2018-07-14T03:02:36.213Z,92.50
2018-07-14T03:05:10.658Z,92.50
2018-07-14T03:07:44.916Z,92.40
2018-07-14T03:10:19.161Z,92.00
2018-07-14T03:12:53.529Z,91.30
2018-07-14T03:15:27.822Z,91.70
2018-07-14T03:18:02.113Z,91.60
2018-07-14T03:20:36.271Z,91.70
2018-07-14T03:23:10.726Z,91.90
2018-07-14T03:25:44.979Z,92.50
2018-07-14T03:28:19.322Z,91.90
2018-07-14T03:30:53.591Z,91.60
2018-07-14T03:33:27.987Z,91.60
2018-07-14T03:36:02.334Z,92.10
2018-07-14T03:38:36.777Z,92.10
2018-07-14T03:41:11.118Z,91.70
2018-07-14T03:43:45.342Z,91.60
2018-07-14T03:46:19.526Z,91.60
2018-07-14T03:48:53.818Z,92.00
2018-07-14T03:51:28.063Z,91.80
2018-07-14T03:54:02.542Z,92.20
2018-07-14T03:56:36.870Z,92.20
2018-07-14T03:59:11.019Z,92.20
2018-07-14T04:01:45.403Z,92.60
2018-07-14T04:04:19.856Z,92.60
2018-07-14T04:06:54.241Z,92.70
2018-07-14T04:09:28.577Z,92.70
2018-07-14T04:12:02.775Z,93.00
2018-07-14T04:14:37.193Z,93.20
2018-07-14T04:17:11.497Z,93.50
2018-07-14T04:19:45.907Z,93.80
2018-07-14T04:22:20.063Z,93.20
2018-07-14T04:24:54.473Z,92.80
2018-07-14T04:30:03.078Z,93.10
2018-07-14T04:32:37.387Z,93.30
2018-07-14T04:35:11.662Z,92.50
2018-07-14T04:37:45.961Z,93.10
2018-07-14T04:40:20.505Z,92.80
2018-07-14T04:42:54.709Z,92.80
2018-07-14T04:45:29.062Z,92.80
2018-07-14T04:48:03.374Z,92.70
2018-07-14T04:50:37.825Z,92.70
2018-07-14T04:53:12.191Z,93.10
2018-07-14T04:55:46.464Z,93.00
2018-07-14T04:58:20.743Z,92.80
2018-07-14T05:00:55.149Z,92.80
2018-07-14T05:03:29.386Z,93.20
2018-07-14T05:11:11.963Z,92.80
2018-07-14T05:13:46.418Z,92.70
2018-07-14T05:16:20.734Z,92.80
2018-07-14T05:18:55.058Z,92.50
2018-07-14T05:21:29.457Z,92.50
2018-07-14T05:24:03.709Z,92.80
2018-07-14T05:26:38.037Z,92.70
2018-07-14T05:29:12.472Z,92.30
2018-07-14T05:31:46.819Z,92.80
2018-07-14T05:34:21.042Z,92.30
2018-07-14T05:36:55.258Z,92.10
2018-07-14T05:39:29.683Z,91.70
2018-07-14T05:42:04.175Z,91.50
2018-07-14T05:44:38.436Z,91.50
2018-07-14T05:47:12.722Z,90.20
2018-07-14T05:49:47.104Z,90.80
2018-07-14T05:52:21.518Z,90.10
2018-07-14T05:54:55.830Z,90.80
2018-07-14T05:57:30.165Z,90.70
2018-07-14T06:00:05.740Z,90.40
2018-07-14T06:02:40.118Z,89.60
2018-07-14T06:05:14.364Z,90.10
2018-07-14T06:07:48.925Z,90.20
2018-07-14T06:10:23.261Z,89.90
2018-07-14T06:15:31.438Z,90.30
2018-07-14T06:18:05.735Z,89.80
2018-07-14T06:20:39.906Z,90.30
2018-07-14T06:23:14.290Z,89.60
2018-07-14T06:25:48.529Z,89.10
2018-07-14T06:28:22.783Z,90.00
2018-07-14T06:30:56.955Z,89.70
2018-07-14T06:33:31.302Z,88.70
2018-07-14T06:36:05.729Z,89.20
2018-07-14T06:38:40.214Z,88.80
2018-07-14T06:41:14.571Z,87.30
2018-07-14T06:43:49.318Z,87.80
2018-07-14T06:46:23.512Z,88.00
2018-07-14T06:51:32.338Z,86.30
2018-07-14T06:54:06.741Z,86.30
2018-07-14T06:56:41.085Z,87.00
2018-07-14T06:59:15.301Z,86.70
2018-07-14T07:01:49.663Z,87.10
2018-07-14T07:04:23.941Z,86.50
2018-07-14T07:06:58.379Z,86.80
2018-07-14T07:09:32.769Z,86.30
2018-07-14T07:12:07.096Z,86.90
2018-07-14T07:14:41.497Z,85.30
2018-07-14T07:17:15.854Z,85.10
2018-07-14T07:19:50.306Z,84.50
2018-07-14T07:22:24.675Z,85.00
2018-07-14T07:24:59.069Z,83.00
2018-07-14T07:27:33.398Z,83.80
2018-07-14T07:30:08.053Z,83.00
2018-07-14T07:32:42.229Z,82.60
2018-07-14T07:35:16.605Z,83.10
2018-07-14T07:37:50.826Z,83.20
2018-07-14T07:40:24.995Z,83.80
2018-07-14T07:48:07.561Z,83.40
2018-07-14T07:50:41.826Z,82.70
2018-07-14T07:53:16.322Z,82.50
2018-07-14T07:55:50.511Z,82.00
2018-07-14T07:58:24.765Z,82.70
2018-07-14T08:00:59.083Z,82.90
2018-07-14T08:03:33.431Z,82.70
2018-07-14T08:06:07.722Z,81.50
2018-07-14T08:08:42.058Z,81.50
2018-07-14T08:11:16.341Z,81.30
2018-07-14T08:13:50.648Z,81.10
2018-07-14T08:16:24.961Z,80.50
2018-07-14T08:18:59.215Z,80.30
2018-07-14T08:21:33.478Z,78.40
2018-07-14T08:24:07.772Z,78.90
2018-07-14T08:26:42.051Z,78.70
2018-07-14T08:29:17.246Z,78.90
2018-07-14T08:31:51.579Z,78.90
2018-07-14T08:34:25.893Z,77.80
2018-07-14T08:37:02.035Z,76.30
2018-07-14T08:39:36.495Z,77.60
2018-07-14T08:42:10.826Z,78.20
2018-07-14T08:44:45.323Z,78.10
2018-07-14T08:47:19.507Z,78.20
2018-07-14T08:49:53.871Z,78.50
2018-07-14T08:52:28.126Z,76.80
2018-07-14T08:55:02.529Z,76.00
2018-07-14T08:57:36.941Z,75.30
2018-07-14T09:00:11.462Z,75.20
2018-07-14T09:02:45.750Z,76.60
2018-07-14T09:05:20.178Z,75.50
2018-07-14T09:07:54.574Z,75.40
2018-07-14T09:10:28.890Z,74.90
2018-07-14T09:13:03.212Z,75.00
2018-07-14T09:15:37.446Z,76.30
2018-07-14T09:18:11.887Z,75.40
2018-07-14T09:20:46.423Z,74.90
2018-07-14T09:23:20.708Z,75.80
2018-07-14T09:25:55.052Z,74.30
2018-07-14T09:28:29.407Z,74.50
2018-07-14T09:31:03.695Z,75.70
2018-07-14T09:33:37.886Z,75.70
2018-07-14T09:36:12.310Z,73.90
2018-07-14T09:38:46.790Z,75.00
2018-07-14T09:41:21.048Z,73.50
2018-07-14T09:43:55.485Z,73.70
2018-07-14T09:46:29.786Z,72.80
2018-07-14T09:49:03.971Z,75.00
2018-07-14T09:51:38.179Z,72.40
2018-07-14T09:54:12.467Z,72.80
2018-07-14T09:56:46.790Z,72.60
2018-07-14T09:59:21.054Z,74.00
2018-07-14T10:01:55.458Z,73.60
2018-07-14T10:04:29.718Z,72.90
2018-07-14T10:07:04.034Z,71.60
2018-07-14T10:09:38.275Z,71.50
2018-07-14T10:12:12.570Z,70.70
2018-07-14T10:14:46.727Z,72.00
2018-07-14T10:17:21.077Z,71.10
2018-07-14T10:19:55.338Z,70.80
2018-07-14T10:22:29.921Z,71.40
2018-07-14T10:25:04.184Z,71.20
2018-07-14T10:27:38.458Z,71.60
2018-07-14T10:30:12.864Z,70.60
2018-07-14T10:32:47.302Z,66.10
2018-07-14T10:35:21.586Z,67.30
2018-07-14T10:37:55.899Z,70.30
2018-07-14T10:40:30.360Z,67.50
2018-07-14T10:43:04.666Z,66.20
2018-07-14T10:45:39.196Z,65.70
2018-07-14T10:48:13.820Z,65.90
2018-07-14T10:50:48.399Z,66.00
2018-07-14T10:53:22.778Z,64.70
2018-07-14T10:55:57.229Z,65.20
2018-07-14T10:58:31.686Z,64.60
2018-07-14T11:01:06.194Z,66.00
2018-07-14T11:03:40.411Z,64.40
2018-07-14T11:06:14.675Z,63.80
2018-07-14T11:08:48.910Z,64.60
2018-07-14T11:11:23.266Z,64.50
2018-07-14T11:13:57.673Z,65.00
2018-07-14T11:16:31.933Z,65.90
2018-07-14T11:19:06.267Z,67.50
2018-07-14T11:21:40.666Z,67.20
2018-07-14T11:24:15.014Z,66.30
2018-07-14T11:26:49.446Z,66.30
2018-07-14T11:29:23.728Z,63.80
2018-07-14T11:31:58.061Z,67.00
2018-07-14T11:34:32.333Z,62.50
2018-07-14T11:37:06.542Z,63.50
2018-07-14T11:39:40.846Z,63.70
2018-07-14T11:42:15.153Z,63.10
2018-07-14T11:44:49.373Z,64.30
2018-07-14T11:47:23.729Z,62.10
2018-07-14T11:49:57.933Z,62.30
2018-07-14T11:52:32.105Z,59.30
2018-07-14T11:55:06.551Z,60.00
2018-07-14T11:57:40.901Z,59.40
2018-07-14T12:00:15.954Z,59.30
2018-07-14T12:02:50.325Z,59.30
2018-07-14T12:05:24.559Z,60.10
2018-07-14T12:07:58.819Z,61.70
2018-07-14T12:10:33.024Z,61.10
2018-07-14T12:13:07.444Z,62.60
2018-07-14T12:15:41.789Z,63.50
2018-07-14T12:18:15.993Z,61.70
2018-07-14T12:20:50.306Z,62.70
2018-07-14T12:23:24.718Z,63.20
2018-07-14T12:25:58.981Z,63.50
2018-07-14T12:28:33.259Z,64.10
2018-07-14T12:33:41.958Z,62.80
2018-07-14T12:36:16.171Z,62.40
2018-07-14T12:38:50.343Z,61.60
2018-07-14T12:41:24.662Z,63.30
2018-07-14T12:43:58.860Z,63.70
2018-07-14T12:46:33.160Z,64.10
2018-07-14T12:49:07.436Z,61.70
2018-07-14T12:51:41.651Z,62.20
2018-07-14T12:54:15.870Z,62.50
2018-07-14T12:56:50.151Z,60.20
2018-07-14T12:59:24.473Z,61.50
2018-07-14T13:01:58.723Z,60.70
2018-07-14T13:04:32.982Z,62.60
2018-07-14T13:07:07.306Z,60.80
2018-07-14T13:09:41.730Z,59.30
2018-07-14T13:12:16.041Z,59.50
2018-07-14T13:14:50.466Z,57.40
2018-07-14T13:17:24.788Z,58.50
2018-07-14T13:19:59.127Z,58.50
2018-07-14T13:22:33.422Z,56.10
2018-07-14T13:25:07.818Z,56.30
2018-07-14T13:27:42.183Z,56.50
2018-07-14T13:30:16.432Z,56.20
2018-07-14T13:32:50.697Z,55.00
2018-07-14T13:35:25.014Z,57.00
2018-07-14T13:37:59.326Z,56.50
2018-07-14T13:40:33.645Z,56.80
2018-07-14T13:43:08.041Z,55.30
2018-07-14T13:45:42.297Z,54.10
2018-07-14T13:48:16.601Z,54.60
2018-07-14T13:50:51.050Z,55.70
2018-07-14T13:53:25.258Z,55.60
2018-07-14T13:55:59.535Z,56.50
2018-07-14T13:58:33.708Z,57.00
2018-07-14T14:01:07.922Z,56.60
2018-07-14T14:03:42.198Z,56.50
2018-07-14T14:06:16.546Z,56.60
2018-07-14T14:08:50.873Z,54.10
2018-07-14T14:11:25.187Z,53.60
2018-07-14T14:13:59.498Z,52.30
2018-07-14T14:16:33.701Z,52.30
2018-07-14T14:19:08.101Z,53.50
2018-07-14T14:21:42.321Z,53.40
2018-07-14T14:24:17.025Z,53.00
2018-07-14T14:26:51.302Z,55.20
2018-07-14T14:29:25.787Z,54.60
2018-07-14T14:32:00.146Z,52.50
2018-07-14T14:34:34.570Z,53.90
2018-07-14T14:37:09.086Z,52.50
2018-07-14T14:39:43.423Z,54.00
2018-07-14T14:42:17.701Z,52.90
2018-07-14T14:44:52.022Z,52.50
2018-07-14T14:47:26.358Z,52.20
2018-07-14T14:50:00.690Z,53.90
2018-07-14T14:52:34.998Z,53.90
2018-07-14T14:55:09.198Z,52.40
2018-07-14T14:57:43.503Z,52.10
2018-07-14T15:00:17.770Z,50.60
2018-07-14T15:02:52.056Z,49.90
2018-07-14T15:05:26.352Z,54.20
2018-07-14T15:08:00.618Z,53.50
2018-07-14T15:10:34.954Z,50.40
2018-07-14T15:13:09.311Z,51.10
2018-07-14T15:15:43.811Z,50.00
2018-07-14T15:18:18.120Z,50.10
2018-07-14T15:20:52.498Z,48.50
2018-07-14T15:23:26.794Z,47.60
2018-07-14T15:26:01.891Z,48.70
2018-07-14T15:28:36.478Z,46.10
2018-07-14T15:31:10.746Z,46.90
2018-07-14T15:33:44.914Z,48.40
2018-07-14T15:36:19.302Z,46.20
2018-07-14T15:38:53.610Z,46.50
2018-07-14T15:41:29.426Z,46.50
2018-07-14T15:44:03.861Z,48.40
2018-07-14T15:46:38.229Z,46.00
2018-07-14T15:49:12.582Z,45.50
2018-07-14T15:51:46.870Z,46.70
2018-07-14T15:54:21.208Z,45.20
2018-07-14T15:56:55.518Z,44.70
2018-07-14T15:59:29.824Z,45.70
2018-07-14T16:02:04.187Z,45.20
2018-07-14T16:04:38.329Z,45.70
2018-07-14T16:07:12.698Z,45.40
2018-07-14T16:09:47.004Z,46.00
2018-07-14T16:12:21.356Z,46.20
2018-07-14T16:14:55.688Z,45.90
2018-07-14T16:17:29.962Z,46.50
2018-07-14T16:20:04.546Z,45.50
2018-07-14T16:22:38.999Z,47.20
2018-07-14T16:25:13.345Z,46.50
2018-07-14T16:27:47.665Z,48.30
2018-07-14T16:30:21.945Z,47.10
2018-07-14T16:35:30.508Z,47.40
2018-07-14T16:38:05.035Z,46.80
2018-07-14T16:40:39.446Z,48.40
2018-07-14T16:43:13.806Z,47.90
2018-07-14T16:45:48.230Z,50.40
2018-07-14T16:48:22.533Z,47.40
2018-07-14T16:50:56.844Z,46.70
2018-07-14T16:53:31.421Z,46.70
2018-07-14T16:56:06.092Z,47.20
2018-07-14T16:58:40.317Z,46.00
2018-07-14T17:01:14.657Z,45.50
2018-07-14T17:03:48.826Z,45.80
2018-07-14T17:06:23.167Z,46.70
2018-07-14T17:08:57.506Z,46.70
2018-07-14T17:11:31.830Z,47.80
2018-07-14T17:14:06.110Z,48.20
2018-07-14T17:19:14.466Z,48.40
2018-07-14T17:21:48.742Z,48.80
2018-07-14T17:24:23.148Z,48.50
2018-07-14T17:26:57.437Z,47.70
2018-07-14T17:29:31.603Z,47.90
2018-07-14T17:32:06.042Z,48.10
2018-07-14T17:34:40.376Z,48.80
2018-07-14T17:37:14.733Z,48.70
2018-07-14T17:39:49.055Z,47.50
2018-07-14T17:42:23.688Z,47.70
2018-07-14T17:44:57.992Z,47.40
2018-07-14T17:47:32.274Z,47.50
2018-07-14T17:50:06.618Z,47.80
2018-07-14T17:52:40.966Z,48.40
2018-07-14T17:55:15.266Z,48.20
2018-07-14T17:57:49.441Z,47.80
2018-07-14T18:00:23.854Z,49.00
2018-07-14T18:02:58.283Z,49.30
2018-07-14T18:05:32.551Z,48.70
2018-07-14T18:08:06.920Z,48.50
2018-07-14T18:10:41.242Z,48.70
2018-07-14T18:13:15.563Z,50.00
2018-07-14T18:15:49.861Z,49.90
2018-07-14T18:18:24.142Z,50.60
2018-07-14T18:20:58.469Z,49.90
2018-07-14T18:23:32.862Z,50.00
2018-07-14T18:26:07.068Z,51.10
2018-07-14T18:28:41.373Z,51.20
2018-07-14T18:31:15.669Z,51.60
2018-07-14T18:33:49.913Z,52.00
2018-07-14T18:36:24.219Z,53.10
2018-07-14T18:38:58.636Z,53.70
2018-07-14T18:41:33.029Z,53.00
2018-07-14T18:44:07.326Z,53.50
2018-07-14T18:46:41.778Z,54.50
2018-07-14T18:49:16.103Z,54.00
2018-07-14T18:51:51.028Z,54.70
2018-07-14T18:54:25.455Z,54.40
2018-07-14T18:56:59.657Z,54.70
2018-07-14T18:59:33.998Z,54.70
2018-07-14T19:02:08.347Z,55.20
2018-07-14T19:04:42.712Z,56.10
2018-07-14T19:07:16.873Z,55.90
2018-07-14T19:09:51.207Z,56.20
2018-07-14T19:12:25.558Z,57.20
2018-07-14T19:15:00.137Z,56.90
2018-07-14T19:17:34.502Z,57.80
2018-07-14T19:20:08.675Z,56.90
2018-07-14T19:22:42.978Z,57.50
2018-07-14T19:25:17.349Z,57.50
2018-07-14T19:27:51.719Z,58.40
2018-07-14T19:30:26.101Z,58.50
2018-07-14T19:33:00.331Z,59.40
2018-07-14T19:35:34.601Z,58.90
2018-07-14T19:38:08.801Z,59.30
2018-07-14T19:40:43.095Z,59.30
2018-07-14T19:43:17.293Z,59.70
2018-07-14T19:45:51.647Z,60.70
2018-07-14T19:48:26.007Z,60.40
2018-07-14T19:51:00.533Z,60.90
2018-07-14T19:53:34.922Z,61.60
2018-07-14T19:56:09.461Z,61.60
2018-07-14T20:01:17.776Z,61.80
2018-07-14T20:03:52.866Z,62.30
2018-07-14T20:06:27.093Z,61.70
2018-07-14T20:09:01.367Z,62.70
2018-07-14T20:11:35.672Z,63.60
2018-07-14T20:14:10.080Z,63.60
2018-07-14T20:16:44.338Z,63.60
2018-07-14T20:19:18.613Z,63.80
2018-07-14T20:21:52.966Z,63.30
2018-07-14T20:24:27.326Z,63.90
2018-07-14T20:27:01.645Z,64.50
2018-07-14T20:29:36.019Z,64.30
2018-07-14T20:32:10.438Z,66.00
2018-07-14T20:34:44.679Z,65.40
2018-07-14T20:37:19.095Z,65.40
2018-07-14T20:39:53.405Z,66.10
2018-07-14T20:42:27.727Z,67.10
2018-07-14T20:45:02.061Z,67.00
2018-07-14T20:47:36.358Z,65.90
2018-07-14T20:50:10.767Z,67.60
2018-07-14T20:52:45.042Z,67.80
2018-07-14T20:55:19.298Z,67.40
2018-07-14T20:57:53.549Z,66.50
2018-07-14T21:00:27.874Z,68.50
2018-07-14T21:03:02.179Z,68.50
2018-07-14T21:05:36.502Z,68.40
2018-07-14T21:08:10.893Z,68.70
2018-07-14T21:10:45.455Z,70.00
2018-07-14T21:13:19.626Z,69.90
2018-07-14T21:15:54.089Z,71.20
2018-07-14T21:18:28.350Z,71.40
2018-07-14T21:21:02.803Z,71.20
2018-07-14T21:23:36.993Z,72.20
2018-07-14T21:26:11.386Z,72.10
2018-07-14T21:28:45.711Z,72.70
2018-07-14T21:31:20.067Z,72.10
2018-07-14T21:33:54.398Z,73.70
2018-07-14T21:36:28.593Z,73.00
2018-07-14T21:39:03.034Z,73.10
2018-07-14T21:41:37.451Z,73.70
2018-07-14T21:44:11.810Z,74.50
2018-07-14T21:46:46.094Z,73.90
2018-07-14T21:49:20.271Z,74.60
2018-07-14T21:51:54.596Z,73.80
2018-07-14T21:54:28.933Z,74.80
2018-07-14T21:57:03.174Z,75.20
2018-07-14T21:59:37.436Z,75.20
2018-07-14T22:02:11.773Z,74.80
2018-07-14T22:07:20.252Z,75.10
2018-07-14T22:12:28.695Z,76.00
2018-07-14T22:15:03.151Z,76.20
2018-07-14T22:17:37.231Z,76.00
2018-07-14T22:20:11.500Z,75.50
2018-07-14T22:22:46.059Z,74.60
2018-07-14T22:25:20.259Z,74.00
2018-07-14T22:27:54.455Z,73.80
2018-07-14T22:30:28.776Z,73.50
2018-07-14T22:33:03.040Z,73.40
2018-07-14T22:38:11.402Z,73.60
2018-07-14T22:40:45.862Z,73.20
2018-07-14T22:43:20.121Z,73.20
2018-07-14T22:45:54.407Z,74.00
2018-07-14T22:48:28.771Z,73.20
2018-07-14T22:51:02.966Z,73.70
2018-07-14T22:53:37.138Z,74.00
2018-07-14T22:56:11.485Z,74.50
2018-07-14T22:58:45.874Z,75.20
2018-07-14T23:01:20.123Z,75.10
2018-07-14T23:03:54.384Z,75.60
2018-07-14T23:06:28.781Z,76.20
2018-07-14T23:09:03.038Z,76.60
2018-07-14T23:11:37.458Z,76.30
2018-07-14T23:14:11.716Z,77.00
2018-07-14T23:16:46.002Z,77.40
2018-07-14T23:19:20.286Z,77.10
2018-07-14T23:21:54.558Z,77.60
2018-07-14T23:24:28.810Z,77.70
2018-07-14T23:27:03.138Z,77.80
2018-07-14T23:29:37.413Z,78.70
2018-07-14T23:32:11.653Z,78.20
2018-07-14T23:34:45.826Z,77.70
2018-07-14T23:37:20.291Z,77.50
2018-07-14T23:39:54.609Z,78.70
2018-07-14T23:42:28.971Z,78.60
2018-07-14T23:45:03.382Z,78.60
2018-07-14T23:47:37.614Z,78.40
2018-07-14T23:50:11.907Z,79.10
2018-07-14T23:52:46.198Z,79.10
2018-07-14T23:55:20.430Z,78.30
2018-07-14T23:57:54.697Z,79.60
